createdAt,value
2022-08-17T00:01:54.918Z,18.2
2022-08-17T00:03:56.627Z,16.5
2022-08-17T00:04:59.158Z,20.9
2022-08-17T00:07:00.958Z,17
2022-08-17T00:09:02.913Z,17.7
2022-08-17T00:11:04.575Z,16.7
2022-08-17T00:13:09.591Z,18.7
2022-08-17T00:15:11.396Z,18.4
2022-08-17T00:17:13.214Z,18.4
2022-08-17T00:19:15.024Z,18.5
2022-08-17T00:21:16.836Z,20.1
2022-08-17T00:23:18.666Z,17.4
2022-08-17T00:25:20.497Z,18.2
2022-08-17T00:27:25.461Z,17.7
2022-08-17T00:29:27.297Z,19.4
2022-08-17T00:31:29.209Z,18.7
2022-08-17T00:33:31.246Z,18.4
2022-08-17T00:37:34.566Z,20.7
2022-08-17T00:39:36.431Z,18.4
2022-08-17T00:41:42.151Z,19.4
2022-08-17T00:43:43.184Z,19.4
2022-08-17T00:45:45.028Z,19.6
2022-08-17T00:47:46.821Z,19.4
2022-08-17T00:49:48.654Z,19.1
2022-08-17T00:51:50.482Z,19.3
2022-08-17T00:55:57.283Z,20.3
2022-08-17T00:57:59.137Z,18.4
2022-08-17T01:00:03.166Z,20.4
2022-08-17T01:14:37.624Z,20.3
2022-08-17T01:22:48.220Z,21.6
2022-08-17T01:26:52.154Z,20.9
2022-08-17T01:28:55.669Z,23.3
2022-08-17T01:30:58.018Z,22.4
2022-08-17T01:32:57.643Z,23
2022-08-17T01:34:59.495Z,22.7
2022-08-17T01:37:04.479Z,23.1
2022-08-17T01:39:06.366Z,23.1
2022-08-17T01:41:08.180Z,23.2
2022-08-17T01:43:10.019Z,22.8
2022-08-17T01:45:11.859Z,23.5
2022-08-17T01:47:13.693Z,25.3
2022-08-17T01:49:15.528Z,23.2
2022-08-17T01:51:20.533Z,25.8
2022-08-17T01:53:22.359Z,24.7
2022-08-17T01:55:27.177Z,24
2022-08-17T01:56:26.701Z,24.4
2022-08-17T01:58:28.539Z,24.4
2022-08-17T02:00:59.380Z,24.1
2022-08-17T02:02:32.265Z,25.9
2022-08-17T02:04:37.278Z,24.9
2022-08-17T02:06:45.063Z,25.3
2022-08-17T02:09:01.787Z,24.4
2022-08-17T02:10:46.668Z,24.6
2022-08-17T02:12:46.125Z,23.2
2022-08-17T02:14:47.954Z,25.5
2022-08-17T02:16:49.805Z,26.7
2022-08-17T02:18:54.822Z,24.3
2022-08-17T02:20:56.660Z,22.7
2022-08-17T02:22:58.485Z,24
2022-08-17T02:25:02.295Z,23.4
2022-08-17T02:27:02.162Z,23.1
2022-08-17T02:29:04.045Z,23.3
2022-08-17T02:31:05.853Z,25.3
2022-08-17T02:33:10.882Z,26.1
2022-08-17T02:35:12.701Z,26
2022-08-17T02:37:14.554Z,24.8
2022-08-17T02:39:16.401Z,24
2022-08-17T02:45:22.013Z,22.9
2022-08-17T02:47:26.942Z,24.8
2022-08-17T02:49:28.804Z,25.2
2022-08-17T02:51:30.629Z,25.2
2022-08-17T02:56:36.831Z,26.7
2022-08-17T03:04:47.397Z,25.6
2022-08-17T03:14:59.809Z,25.6
2022-08-17T03:17:01.656Z,23.9
2022-08-17T03:25:10.636Z,24.8
2022-08-17T03:27:10.901Z,22.5
2022-08-17T03:33:19.643Z,25.2
2022-08-17T03:35:21.464Z,27.3
2022-08-17T03:37:23.324Z,27.1
2022-08-17T03:39:25.188Z,28.4
2022-08-17T03:41:26.998Z,24.8
2022-08-17T03:43:32.029Z,27.3
2022-08-17T03:45:33.857Z,25.7
2022-08-17T03:47:35.721Z,23.7
2022-08-17T03:48:38.233Z,26.5
2022-08-17T03:50:40.085Z,27.1
2022-08-17T03:52:41.916Z,25.9
2022-08-17T03:54:43.778Z,25.7
2022-08-17T03:56:48.796Z,26.9
2022-08-17T03:58:50.637Z,25.3
2022-08-17T04:00:52.477Z,25.7
2022-08-17T04:02:54.333Z,24.5
2022-08-17T04:04:57.132Z,25.2
2022-08-17T04:19:13.240Z,27.4
2022-08-17T04:21:15.093Z,24.4
2022-08-17T04:23:16.967Z,25.3
2022-08-17T04:25:21.978Z,26.1
2022-08-17T04:27:23.791Z,25.7
2022-08-17T04:29:25.642Z,25.5
2022-08-17T04:31:27.514Z,27.2
2022-08-17T04:33:29.359Z,28.5
2022-08-17T04:35:31.209Z,28
2022-08-17T04:37:33.062Z,27.9
2022-08-17T04:41:39.927Z,25.6
2022-08-17T04:43:41.774Z,25.3
2022-08-17T04:46:10.314Z,25.7
2022-08-17T04:48:12.184Z,25.1
2022-08-17T04:50:14.030Z,26.6
2022-08-17T04:52:32.177Z,28.3
2022-08-17T04:54:20.911Z,26.2
2022-08-17T04:56:22.781Z,26.3
2022-08-17T04:58:24.616Z,27.9
2022-08-17T05:00:26.483Z,24.9
2022-08-17T05:04:34.798Z,25.5
2022-08-17T05:06:35.218Z,26.9
2022-08-17T05:08:37.070Z,26.7
2022-08-17T05:12:40.781Z,25.7
2022-08-17T05:14:42.632Z,26.8
2022-08-17T05:16:44.502Z,25.5
2022-08-17T05:18:46.373Z,24.4
2022-08-17T05:20:51.373Z,27.3
2022-08-17T05:22:53.245Z,25.8
2022-08-17T05:24:55.598Z,24.5
2022-08-17T05:26:59.421Z,26
2022-08-17T05:29:00.662Z,25.4
2022-08-17T05:33:02.526Z,24.3
2022-08-17T05:35:07.536Z,23.7
2022-08-17T05:37:09.385Z,23.3
2022-08-17T05:40:13.726Z,26.3
2022-08-17T05:42:15.625Z,24.8
2022-08-17T05:44:17.480Z,27.4
2022-08-17T05:46:19.310Z,27.2
2022-08-17T05:48:35.727Z,28.6
2022-08-17T05:50:26.184Z,26
2022-08-17T05:52:28.028Z,26.2
2022-08-17T05:54:29.875Z,26.5
2022-08-17T05:56:31.745Z,30.7
2022-08-17T05:58:33.585Z,31.4
2022-08-17T06:00:35.462Z,29.6
2022-08-17T06:02:43.070Z,33.3
2022-08-17T06:04:42.329Z,30.5
2022-08-17T06:06:44.168Z,28.8
2022-08-17T06:08:46.036Z,33.9
2022-08-17T06:10:47.946Z,33.4
2022-08-17T06:12:49.878Z,31.2
2022-08-17T06:14:51.633Z,32.1
2022-08-17T06:16:56.651Z,35
2022-08-17T06:23:02.243Z,30.9
2022-08-17T06:25:04.105Z,36
2022-08-17T06:27:05.970Z,33.6
2022-08-17T06:31:12.838Z,35.8
2022-08-17T06:33:14.690Z,35.1
2022-08-17T06:40:22.783Z,31.5
2022-08-17T06:43:05.150Z,32.3
2022-08-17T06:44:43.390Z,32.8
2022-08-17T06:46:31.518Z,32.8
2022-08-17T06:48:33.394Z,30.2
2022-08-17T06:50:35.242Z,30.7
2022-08-17T06:52:55.680Z,30.3
2022-08-17T06:54:38.954Z,29.1
2022-08-17T06:56:54.227Z,28.5
2022-08-17T06:58:45.812Z,28.9
2022-08-17T07:04:51.380Z,26.5
2022-08-17T07:06:53.256Z,24.8
2022-08-17T07:08:55.103Z,26.3
2022-08-17T07:10:56.939Z,24.3
2022-08-17T07:13:01.944Z,28
2022-08-17T07:15:03.790Z,24
2022-08-17T07:17:05.626Z,25.3
2022-08-17T07:21:11.103Z,24
2022-08-17T07:23:11.164Z,21.6
2022-08-17T07:25:13.018Z,21.5
2022-08-17T07:27:18.003Z,23.3
2022-08-17T07:29:19.865Z,22.6
2022-08-17T07:32:24.238Z,22.6
2022-08-17T07:34:26.032Z,20.1
2022-08-17T07:36:29.976Z,22.8
2022-08-17T07:38:29.688Z,21.2
2022-08-17T07:40:34.837Z,21.5
2022-08-17T07:42:36.531Z,21.3
2022-08-17T07:44:38.356Z,21.7
2022-08-17T07:46:40.212Z,19.5
2022-08-17T07:48:42.016Z,20.1
2022-08-17T07:50:49.610Z,20.8
2022-08-17T07:52:51.714Z,20.6
2022-08-17T07:54:50.666Z,20
2022-08-17T07:56:52.526Z,20.2
2022-08-17T07:58:55.878Z,18.5
2022-08-17T08:00:57.669Z,21.6
2022-08-17T08:02:59.483Z,18.5
2022-08-17T08:05:02.062Z,19.1
2022-08-17T08:07:03.135Z,18.3
2022-08-17T08:09:08.114Z,20.7
2022-08-17T08:11:09.952Z,19.9
2022-08-17T08:13:12.298Z,18.5
2022-08-17T08:15:13.584Z,17.9
2022-08-17T08:17:15.402Z,17.9
2022-08-17T08:21:19.032Z,18.8
2022-08-17T08:23:24.045Z,19
2022-08-17T08:25:25.847Z,18.5
2022-08-17T08:27:27.675Z,18.7
2022-08-17T08:36:04.810Z,19.7
2022-08-17T08:40:08.565Z,18.9
2022-08-17T08:42:10.890Z,20.8
2022-08-17T08:46:14.505Z,20.8
2022-08-17T08:50:37.446Z,22.6
2022-08-17T08:52:23.139Z,18.7
2022-08-17T08:54:26.687Z,21.8
2022-08-17T08:56:26.737Z,20.5
2022-08-17T08:58:30.740Z,20.7
2022-08-17T09:00:30.431Z,19.8
2022-08-17T09:02:34.634Z,19.6
2022-08-17T09:04:55.939Z,21.2
2022-08-17T09:06:39.903Z,22.1
2022-08-17T09:08:40.770Z,22.3
2022-08-17T09:10:42.598Z,20.2
2022-08-17T09:12:44.403Z,19.8
2022-08-17T09:14:47.093Z,21.1
2022-08-17T09:16:48.085Z,21.2
2022-08-17T09:19:02.609Z,21.2
2022-08-17T09:20:54.797Z,19.5
2022-08-17T09:22:56.599Z,19.6
2022-08-17T09:30:04.493Z,22
2022-08-17T09:36:13.056Z,17.9
2022-08-17T09:40:16.787Z,19.6
2022-08-17T09:42:18.523Z,18.7
2022-08-17T09:44:23.317Z,18.6
2022-08-17T09:51:04.200Z,18.5
2022-08-17T09:54:39.268Z,19.6
2022-08-17T09:56:34.107Z,17.5
2022-08-17T10:00:40.838Z,19.8
2022-08-17T10:02:42.625Z,19.2
2022-08-17T10:04:44.397Z,18.2
2022-08-17T10:06:46.173Z,18.1
2022-08-17T10:08:47.951Z,21.1
2022-08-17T10:10:52.370Z,21
2022-08-17T10:12:53.148Z,19.8
2022-08-17T10:14:56.457Z,19.7
2022-08-17T10:16:58.223Z,18.9
2022-08-17T10:26:07.775Z,20.5
2022-08-17T10:34:18.033Z,21.7
2022-08-17T10:36:19.789Z,22.3
2022-08-17T10:42:32.562Z,22.5
2022-08-17T10:44:38.758Z,24.2
2022-08-17T11:00:47.448Z,24
2022-08-17T11:02:49.569Z,24
2022-08-17T11:04:50.946Z,22.4
2022-08-17T11:06:53.106Z,24.5
2022-08-17T11:10:59.445Z,23.7
2022-08-17T11:13:01.220Z,24.2
2022-08-17T11:16:08.440Z,25.3
2022-08-17T11:18:07.215Z,23.6
2022-08-17T11:20:08.946Z,22.1
2022-08-17T11:22:10.747Z,26.8
2022-08-17T11:24:15.686Z,25.6
2022-08-17T11:26:17.443Z,22.9
2022-08-17T11:30:20.966Z,26.6
2022-08-17T11:32:22.741Z,25
2022-08-17T11:34:24.500Z,23.7
2022-08-17T11:42:34.772Z,25.2
2022-08-17T11:46:38.308Z,23.7
2022-08-17T11:48:40.062Z,25.1
2022-08-17T11:54:48.564Z,26.3
2022-08-17T11:56:50.401Z,25.1
2022-08-17T12:00:53.844Z,25.8
2022-08-17T12:02:55.610Z,26.6
2022-08-17T12:04:57.384Z,25.4
2022-08-17T12:07:02.320Z,28.6
2022-08-17T12:09:04.092Z,27.2
2022-08-17T12:11:05.831Z,28.6
2022-08-17T12:13:39.385Z,28.1
2022-08-17T12:15:35.962Z,31
2022-08-17T12:19:42.688Z,31.6
2022-08-17T12:21:44.438Z,27
2022-08-17T12:23:46.188Z,27.1
2022-08-17T12:28:05.500Z,26.7
2022-08-17T12:29:51.501Z,26.5
2022-08-17T12:31:53.268Z,28.1
2022-08-17T12:33:58.218Z,27.7
2022-08-17T12:36:00.004Z,25.7
2022-08-17T12:38:01.749Z,27.1
2022-08-17T12:40:03.598Z,28.5
2022-08-17T12:42:05.298Z,28.5
2022-08-17T12:44:07.061Z,27.2
2022-08-17T12:46:13.495Z,28
2022-08-17T12:48:13.785Z,28.9
2022-08-17T12:50:28.723Z,28.5
2022-08-17T12:52:17.328Z,26.5
2022-08-17T12:54:19.106Z,27.5
2022-08-17T12:56:20.871Z,24.5
2022-08-17T12:58:22.640Z,28.8
2022-08-17T13:00:24.415Z,27.5
2022-08-17T13:02:29.369Z,28.2
2022-08-17T13:04:31.113Z,28.1
2022-08-17T13:06:32.924Z,26.4
2022-08-17T13:11:38.903Z,27.5
2022-08-17T13:13:40.674Z,25.2
2022-08-17T13:19:49.225Z,24
2022-08-17T13:21:50.972Z,25.2
2022-08-17T13:27:56.320Z,27.2
2022-08-17T13:30:01.279Z,26.6
2022-08-17T13:32:04.156Z,27.6
2022-08-17T13:34:04.907Z,26.5
2022-08-17T13:38:08.434Z,25.5
2022-08-17T13:42:13.679Z,27.5
2022-08-17T13:44:17.011Z,29.9
2022-08-17T13:46:18.808Z,35.1
2022-08-17T13:48:20.624Z,30.6
2022-08-17T13:50:23.969Z,29.2
2022-08-17T13:52:25.755Z,29.5
2022-08-17T13:54:27.554Z,30.4
2022-08-17T13:56:38.902Z,31.2
2022-08-17T13:58:34.328Z,35.6
2022-08-17T14:00:36.140Z,31.3
2022-08-17T14:02:37.937Z,31.8
2022-08-17T14:03:40.451Z,34.8
2022-08-17T14:05:42.244Z,34.5
2022-08-17T14:07:44.124Z,32.9
2022-08-17T14:09:45.851Z,35.3
2022-08-17T14:11:50.811Z,36.7
2022-08-17T14:13:52.630Z,38.4
2022-08-17T14:15:55.621Z,35.9
2022-08-17T14:17:56.240Z,37.4
2022-08-17T14:19:58.050Z,42.3
2022-08-17T14:21:59.915Z,38.4
2022-08-17T14:28:08.454Z,35.6
2022-08-17T14:30:10.291Z,36.5
2022-08-17T14:32:12.086Z,36.8
2022-08-17T14:34:13.883Z,39.9
2022-08-17T14:38:17.535Z,38.6
2022-08-17T14:40:22.499Z,42.4
2022-08-17T14:42:24.305Z,41.9
2022-08-17T14:44:26.082Z,40.5
2022-08-17T14:46:27.916Z,41.5
2022-08-17T14:48:29.737Z,42.3
2022-08-17T14:50:31.915Z,48.8
2022-08-17T14:52:33.350Z,41.9
2022-08-17T14:54:42.432Z,43.5
2022-08-17T14:56:40.150Z,38.5
2022-08-17T14:58:41.940Z,34.3
2022-08-17T15:03:48.021Z,34.1
2022-08-17T15:05:49.858Z,33.5
2022-08-17T15:09:56.635Z,33.4
2022-08-17T15:11:58.425Z,33.3
2022-08-17T15:14:00.231Z,34.3
2022-08-17T15:16:02.035Z,33.8
2022-08-17T15:20:05.648Z,35.6
2022-08-17T15:22:10.642Z,34.5
2022-08-17T15:24:12.429Z,32.4
2022-08-17T15:26:14.230Z,33.3
2022-08-17T15:28:16.050Z,30.7
2022-08-17T15:30:17.871Z,27.7
2022-08-17T15:32:19.648Z,30.6
2022-08-17T15:34:21.465Z,27.9
2022-08-17T15:36:26.436Z,23.8
2022-08-17T15:38:28.239Z,23.9
2022-08-17T15:40:30.029Z,22
2022-08-17T15:42:31.843Z,19.9
2022-08-17T15:44:35.146Z,23.4
2022-08-17T15:46:35.426Z,22.8
2022-08-17T15:48:37.203Z,23.3
2022-08-17T15:50:42.178Z,26.9
2022-08-17T15:52:43.978Z,30.5
2022-08-17T15:54:45.777Z,28.7
2022-08-17T15:57:14.230Z,31.5
2022-08-17T15:59:16.040Z,29.6
2022-08-17T16:01:27.862Z,29.6
2022-08-17T16:03:56.079Z,32.9
2022-08-17T16:05:24.969Z,30.4
2022-08-17T16:07:26.903Z,39.8
2022-08-17T16:09:28.248Z,51.9
2022-08-17T16:11:30.043Z,31.8
2022-08-17T16:13:31.837Z,34.4
2022-08-17T16:15:33.633Z,35.4
2022-08-17T16:17:40.675Z,35.5
2022-08-17T16:19:40.438Z,37.5
2022-08-17T16:21:42.495Z,34.2
2022-08-17T16:23:44.023Z,39.4
2022-08-17T16:25:53.313Z,34.2
2022-08-17T16:27:47.747Z,37.8
2022-08-17T16:29:49.458Z,40.9
2022-08-17T16:31:54.435Z,38.3
2022-08-17T16:34:15.929Z,38.1
2022-08-17T16:35:58.061Z,37.7
2022-08-17T16:37:59.859Z,39.4
2022-08-17T16:40:01.760Z,36.2
2022-08-17T16:42:03.474Z,37.5
2022-08-17T16:44:05.303Z,37.4
2022-08-17T16:46:10.363Z,41.5
2022-08-17T16:48:12.080Z,40.7
2022-08-17T16:50:13.884Z,38.9
2022-08-17T16:51:16.382Z,38.9
2022-08-17T16:53:18.200Z,37.2
2022-08-17T16:55:20.010Z,39
2022-08-17T16:57:21.818Z,39.4
2022-08-17T16:59:30.754Z,39.5
2022-08-17T17:01:28.660Z,41.6
2022-08-17T17:03:30.435Z,38.1
2022-08-17T17:05:32.234Z,39.2
2022-08-17T17:07:34.068Z,36.6
2022-08-17T17:09:35.868Z,38.9
2022-08-17T17:11:37.699Z,39.2
2022-08-17T17:15:44.480Z,36.6
2022-08-17T17:17:46.354Z,42.6
2022-08-17T17:21:49.935Z,37.7
2022-08-17T17:25:53.572Z,34.7
2022-08-17T17:27:58.549Z,30.9
2022-08-17T17:30:00.373Z,32.2
2022-08-17T17:32:02.209Z,30.3
2022-08-17T17:34:04.006Z,30.1
2022-08-17T17:36:05.835Z,28.6
2022-08-17T17:38:07.653Z,24.9
2022-08-17T17:40:09.570Z,26
2022-08-17T17:42:14.435Z,24.4
2022-08-17T17:44:17.989Z,24.7
2022-08-17T17:46:27.921Z,28
2022-08-17T17:55:30.991Z,22.4
2022-08-17T17:57:32.797Z,22.6
2022-08-17T18:03:38.255Z,25.3
2022-08-17T18:05:40.072Z,25.4
2022-08-17T18:07:42.203Z,29
2022-08-17T18:09:46.876Z,25.7
2022-08-17T18:11:51.486Z,25.7
2022-08-17T18:13:50.523Z,25.6
2022-08-17T18:15:52.339Z,26.7
2022-08-17T18:19:55.965Z,25.9
2022-08-17T18:21:57.796Z,28.7
2022-08-17T18:24:02.793Z,27.2
2022-08-17T18:26:04.706Z,24
2022-08-17T18:30:09.413Z,30.1
2022-08-17T18:32:10.111Z,27.5
2022-08-17T18:34:29.389Z,28.3
2022-08-17T18:36:13.742Z,28.4
2022-08-17T18:38:20.222Z,28
2022-08-17T18:40:20.613Z,26.1
2022-08-17T18:42:22.379Z,26.4
2022-08-17T18:45:26.691Z,26.3
2022-08-17T18:47:28.521Z,25.4
2022-08-17T18:49:30.350Z,25.2
2022-08-17T18:51:41.957Z,27.7
2022-08-17T18:53:37.231Z,26.7
2022-08-17T18:55:39.049Z,27.1
2022-08-17T19:05:51.286Z,28.9
2022-08-17T19:09:55.025Z,26.2
2022-08-17T19:13:58.613Z,26.6
2022-08-17T19:16:14.443Z,31
2022-08-17T19:18:02.315Z,28.3
2022-08-17T19:20:07.313Z,27.1
2022-08-17T19:22:09.170Z,28.9
2022-08-17T19:32:18.261Z,26.3
2022-08-17T19:38:26.970Z,28.3
2022-08-17T19:42:56.558Z,29.3
2022-08-17T19:44:58.489Z,27.4
2022-08-17T19:47:03.295Z,31
2022-08-17T19:49:05.400Z,30
2022-08-17T19:51:06.977Z,29.6
2022-08-17T19:53:08.773Z,30.8
2022-08-17T19:55:10.619Z,33.2
2022-08-17T19:57:12.450Z,29.8
2022-08-17T19:59:14.271Z,33.2
2022-08-17T20:01:19.346Z,35.7
2022-08-17T20:03:21.096Z,34.7
2022-08-17T20:05:23.080Z,31.2
2022-08-17T20:07:24.742Z,35.9
2022-08-17T20:09:29.671Z,32.3
2022-08-17T20:11:28.375Z,31
2022-08-17T20:13:33.630Z,35.4
2022-08-17T20:15:35.190Z,35.5
2022-08-17T20:17:37.027Z,33
2022-08-17T20:19:38.844Z,32.7
2022-08-17T20:21:40.657Z,33
2022-08-17T20:23:42.470Z,29.2
2022-08-17T20:25:44.336Z,33
2022-08-17T20:27:46.118Z,32.2
2022-08-17T20:29:51.111Z,33.1
2022-08-17T20:31:52.918Z,29.1
2022-08-17T20:33:54.748Z,28.6
2022-08-17T20:34:57.238Z,31.4
2022-08-17T20:36:58.828Z,28.9
2022-08-17T20:39:00.703Z,31.3
2022-08-17T20:41:02.475Z,29.6
2022-08-17T20:43:07.468Z,32.1
2022-08-17T20:45:09.283Z,30.7
2022-08-17T20:47:11.104Z,29.8
2022-08-17T21:01:27.113Z,29
2022-08-17T21:03:39.948Z,30.3
2022-08-17T21:05:30.705Z,30
2022-08-17T21:07:42.895Z,30.8
2022-08-17T21:09:34.368Z,29.3
2022-08-17T21:11:56.625Z,28.8
2022-08-17T21:13:41.195Z,29.5
2022-08-17T21:15:43.033Z,32.8
2022-08-17T21:17:44.930Z,29.3
2022-08-17T21:20:08.077Z,30.3
2022-08-17T21:21:48.552Z,30.5
2022-08-17T21:23:50.394Z,28.8
2022-08-17T21:27:57.262Z,28.6
2022-08-17T21:29:59.068Z,28.4
2022-08-17T21:31:01.580Z,31.1
2022-08-17T21:33:03.417Z,29
2022-08-17T21:35:05.263Z,29.3
2022-08-17T21:37:07.091Z,28.8
2022-08-17T21:39:12.087Z,29.5
2022-08-17T21:41:14.094Z,28
2022-08-17T21:45:17.612Z,27
2022-08-17T21:47:19.469Z,29.3
2022-08-17T21:49:21.290Z,26.8
2022-08-17T21:51:23.133Z,27.1
2022-08-17T21:53:32.732Z,28.7
2022-08-17T21:55:29.965Z,26.1
2022-08-17T22:01:35.634Z,23.3
2022-08-17T22:03:37.380Z,25.2
2022-08-17T22:05:39.206Z,25
2022-08-17T22:11:47.910Z,23.2
2022-08-17T22:13:49.738Z,25.7
2022-08-17T22:15:51.595Z,22.4
2022-08-17T22:17:53.453Z,23.9
2022-08-17T22:22:00.288Z,23.3
2022-08-17T22:26:03.982Z,22.8
2022-08-17T22:27:06.478Z,23.3
2022-08-17T22:29:08.329Z,23.2
2022-08-17T22:31:10.189Z,24.5
2022-08-17T22:33:12.028Z,22.8
2022-08-17T22:35:17.065Z,22.7
2022-08-17T22:37:18.862Z,22
2022-08-17T22:39:20.712Z,24.4
2022-08-17T22:41:22.569Z,20.8
2022-08-17T22:43:26.324Z,23.5
2022-08-17T22:45:26.266Z,24.1
2022-08-17T22:47:28.115Z,21
2022-08-17T22:49:33.107Z,20.9
2022-08-17T22:51:34.974Z,20.9
2022-08-17T22:53:36.837Z,23.4
2022-08-17T22:55:38.675Z,21.1
2022-08-17T22:57:40.523Z,21.8
2022-08-17T23:05:51.077Z,19.8
2022-08-17T23:07:53.075Z,19.8
2022-08-17T23:09:54.803Z,20.2
2022-08-17T23:13:58.486Z,19.5
2022-08-17T23:16:00.339Z,21
2022-08-17T23:18:05.369Z,20.2
2022-08-17T23:20:07.211Z,17
2022-08-17T23:24:37.583Z,18.5
2022-08-17T23:26:39.438Z,18.1
2022-08-17T23:28:41.285Z,18.6
2022-08-17T23:30:46.275Z,17.5
2022-08-17T23:32:53.348Z,18.2
2022-08-17T23:34:49.997Z,14.9
2022-08-17T23:36:52.420Z,17.6
2022-08-17T23:38:53.711Z,15.9
2022-08-17T23:40:55.553Z,17.5
2022-08-17T23:42:57.376Z,16.8
2022-08-17T23:45:02.409Z,15.4
2022-08-17T23:49:06.103Z,15.7
2022-08-17T23:51:07.981Z,14.5
2022-08-17T23:53:09.843Z,15.2
2022-08-17T23:55:11.720Z,15.2
2022-08-17T23:57:13.535Z,16.3
2022-08-17T23:59:18.564Z,18.2
